メインページ
METAR-TAF:

METAR-TAF

空港 :

クアラルンプール国際空港

クアラルンプール, マレーシア

緯度: 02-44N, 経度: 101-42E, 海抜: 21m

現時点の気象観測

当レポートは36分前の23:00(UTC)に作成
変向風 3kt
気温 25°C
湿度 83%
気圧 1010 hPa
視程10km以上
高度1700ftの雲はほとんどない, 積乱雲.
高度14000ftの雲は散在している
高度28000ftの千切れ雲あり

METAR: WMKK 242300Z VRB03KT 9999 FEW017CB SCT140 BKN280 25/22 Q1010 NOSIG

時間: 07:36 (23:36 UTC)

予報

当レポートは36分前の23:00(UTC)に作成
予報は25日の 00時(UTC)から 26日の 06時(UTC)まで有効
変向風 2kt
視程10km以上
高度1700ftの雲はほとんどない, 積乱雲.
25日の 02時(UTC)から 25日の 04時(UTC)まで徐々に
の風 6kt
高度2000ftの雲はほとんどない
確率 30% :
25日の 07時(UTC)から 25日の 11時(UTC)まで一時的に
視程: 5000m
高度1700ftの雲はほとんどない, 積乱雲.
激しい雷雨, 雨
25日の 14時(UTC)から 25日の 15時(UTC)まで徐々に
変向風 2kt
高度2500ftの雲はほとんどない
確率 30% :
25日の 20時(UTC)から 25日の 23時(UTC)まで一時的に
視程: 5000m
高度1700ftの雲はほとんどない, 積乱雲.
激しい雷雨, 雨

TAF: WMKK 242300Z 2500/2606 VRB02KT 9999 FEW017CB BECMG 2502/2504 17006KT FEW020 PROB30 TEMPO 2507/2511 5000 TSRA FEW017CB BECMG 2514/2515 VRB02KT FEW025 PROB30 TEMPO 2520/2523 5000 TSRA FEW017CB

4,000以上の空港の気象観測と天気予報(METAR報とTAF報)

利用可能な観測所は地図上に黄色い丸と赤い丸で示す。

丸の上にカーソルを重ねると観測所名を参照できる。

次にクリックすると気象観測と天気予報を参照できる。

マップの切り替え:黒色「×」印の緑ボタンをクリックして拡大、「-」印の緑ボタンをクリックして縮小、緑色の三角印をクリックして隣りの地図に切り替え


METAR-TAF: